Time;durP1;ratioP1;P1;durP2;ratioP2;P2;SDS_P1;SDS_P2;PMS_P1;PMS_P2;Temp;Humidity;BMP_temperature;BMP_pressure;BME280_temperature;BME280_humidity;BME280_pressure;Samples;Min_cycle;Max_cycle;Signal;HPM_P1;HPM_P2
2021/04/26 00:01:13;;;;;;;11.32;5.00;;;;;;;;;;5096777;28;20231;-58
2021/04/26 00:03:40;;;;;;;11.07;5.50;;;;;;;;;;5096450;28;20201;-58
2021/04/26 00:06:07;;;;;;;11.23;5.05;;;;;;;;;;5096339;28;20210;-58
2021/04/26 00:08:56;;;;;;;12.45;4.10;;;;;;;;;;5096209;28;20224;-52
2021/04/26 00:11:24;;;;;;;7.82;4.00;;;;;;;;;;5096811;28;20302;-50
2021/04/26 00:13:51;;;;;;;7.35;3.90;;;;;;;;;;5096156;28;20256;-47
2021/04/26 00:16:24;;;;;;;11.05;4.05;;;;;;;;;;5096768;28;20236;-52
2021/04/26 00:18:51;;;;;;;11.57;4.70;;;;;;;;;;5096141;28;20217;-52
2021/04/26 00:21:18;;;;;;;11.98;4.70;;;;;;;;;;5096423;28;20221;-49
2021/04/26 00:26:49;;;;;;;8.40;3.95;;;;;;;;;;5096174;28;20251;-53
2021/04/26 00:29:16;;;;;;;7.15;4.57;;;;;;;;;;5078895;28;20201;-55
2021/04/26 00:34:47;;;;;;;8.73;5.00;;;;;;;;;;5095572;28;20176;-54
2021/04/26 00:37:14;;;;;;;15.65;5.82;;;;;;;;;;5096421;28;20198;-47
2021/04/26 00:40:17;;;;;;;14.45;5.00;;;;;;;;;;5095668;28;20214;-54
2021/04/26 00:42:45;;;;;;;12.85;5.47;;;;;;;;;;5092791;28;20225;-54
2021/04/26 00:45:12;;;;;;;6.25;3.90;;;;;;;;;;5095318;28;20206;-57
2021/04/26 00:47:40;;;;;;;9.68;3.97;;;;;;;;;;5095486;28;20255;-53
2021/04/26 00:50:08;;;;;;;6.50;3.78;;;;;;;;;;5095431;28;20210;-46
2021/04/26 00:52:35;;;;;;;9.30;4.82;;;;;;;;;;5095875;28;20232;-58
2021/04/26 00:55:10;;;;;;;8.45;4.20;;;;;;;;;;5095100;28;20210;-53
2021/04/26 00:57:36;;;;;;;8.27;4.65;;;;;;;;;;5095099;28;20209;-53
2021/04/26 01:00:07;;;;;;;8.05;3.97;;;;;;;;;;5095140;28;20337;-49
2021/04/26 01:02:39;;;;;;;9.38;4.03;;;;;;;;;;5093267;28;20225;-53
2021/04/26 01:05:06;;;;;;;8.75;4.15;;;;;;;;;;5095168;28;20210;-54
2021/04/26 01:07:34;;;;;;;4.70;3.05;;;;;;;;;;5095255;28;20205;-48
2021/04/26 01:10:33;;;;;;;7.45;4.38;;;;;;;;;;5095017;28;20194;-55
2021/04/26 01:13:08;;;;;;;5.10;2.90;;;;;;;;;;5095262;28;20206;-51
2021/04/26 01:15:41;;;;;;;8.30;3.25;;;;;;;;;;5094916;28;20261;-54
2021/04/26 01:18:11;;;;;;;11.23;3.35;;;;;;;;;;5094927;28;20245;-54
2021/04/26 01:20:53;;;;;;;8.23;3.85;;;;;;;;;;5094970;28;20210;-55
2021/04/26 01:23:38;;;;;;;10.93;4.00;;;;;;;;;;5095316;28;20233;-55
2021/04/26 01:26:21;;;;;;;8.88;3.75;;;;;;;;;;5095026;28;20209;-52
2021/04/26 01:28:51;;;;;;;10.90;3.53;;;;;;;;;;5094798;28;20197;-49
2021/04/26 01:31:21;;;;;;;8.80;4.20;;;;;;;;;;5074614;28;20203;-49
2021/04/26 01:33:57;;;;;;;7.55;3.88;;;;;;;;;;5075342;28;20207;-55
2021/04/26 01:36:26;;;;;;;10.65;4.20;;;;;;;;;;5075365;28;20190;-43
2021/04/26 01:38:53;;;;;;;7.18;3.78;;;;;;;;;;5075053;28;20210;-55
2021/04/26 01:41:21;;;;;;;5.85;3.55;;;;;;;;;;5074793;28;20226;-58
2021/04/26 01:43:48;;;;;;;5.38;2.92;;;;;;;;;;5074801;28;20213;-50
2021/04/26 01:46:27;;;;;;;11.50;3.88;;;;;;;;;;5074803;28;20201;-53
2021/04/26 01:48:56;;;;;;;8.98;3.80;;;;;;;;;;5074987;28;20226;-48
2021/04/26 01:51:23;;;;;;;8.35;4.22;;;;;;;;;;5074573;28;20219;-53
2021/04/26 01:54:18;;;;;;;5.63;3.78;;;;;;;;;;5074944;28;20205;-54
2021/04/26 01:56:45;;;;;;;6.90;3.70;;;;;;;;;;5090364;28;20249;-55
2021/04/26 01:59:12;;;;;;;7.75;4.70;;;;;;;;;;5094259;28;20217;-55
2021/04/26 02:01:47;;;;;;;8.68;4.00;;;;;;;;;;5093963;28;20307;-53
2021/04/26 02:04:14;;;;;;;8.15;3.97;;;;;;;;;;5091951;28;20241;-52
2021/04/26 02:06:42;;;;;;;14.98;5.75;;;;;;;;;;5094600;28;20214;-53
2021/04/26 02:09:22;;;;;;;9.73;3.60;;;;;;;;;;5095319;28;20210;-54
2021/04/26 02:11:57;;;;;;;9.40;4.47;;;;;;;;;;5095333;28;20281;-58
2021/04/26 02:14:31;;;;;;;8.85;4.05;;;;;;;;;;5094698;28;20197;-58
2021/04/26 02:16:58;;;;;;;8.52;3.83;;;;;;;;;;5094882;28;20198;-51
2021/04/26 02:19:26;;;;;;;6.28;3.67;;;;;;;;;;5099081;28;20558;-56
2021/04/26 02:22:04;;;;;;;10.05;4.63;;;;;;;;;;5098543;28;20218;-55
2021/04/26 02:24:31;;;;;;;5.93;3.38;;;;;;;;;;5096498;28;20233;-52
2021/04/26 02:26:58;;;;;;;9.35;3.63;;;;;;;;;;5098665;28;20295;-53
2021/04/26 02:29:28;;;;;;;8.10;4.07;;;;;;;;;;5098588;28;20261;-52
2021/04/26 02:31:56;;;;;;;10.88;3.60;;;;;;;;;;5098142;28;20281;-54
2021/04/26 02:34:34;;;;;;;15.55;4.55;;;;;;;;;;5098390;28;20205;-52
2021/04/26 02:37:03;;;;;;;6.82;3.58;;;;;;;;;;5098168;28;20202;-54
2021/04/26 02:39:31;;;;;;;11.38;5.32;;;;;;;;;;5098452;28;20286;-59
2021/04/26 02:42:07;;;;;;;7.90;5.05;;;;;;;;;;5097980;28;20358;-53
2021/04/26 02:44:34;;;;;;;5.43;3.33;;;;;;;;;;5098117;28;20209;-56
2021/04/26 02:47:04;;;;;;;6.72;3.92;;;;;;;;;;5097807;28;20198;-55
2021/04/26 02:49:41;;;;;;;6.22;3.53;;;;;;;;;;5098806;28;20198;-53
2021/04/26 02:52:09;;;;;;;7.63;4.57;;;;;;;;;;5098204;28;20201;-54
2021/04/26 02:54:37;;;;;;;10.10;3.65;;;;;;;;;;5098441;28;20209;-48
2021/04/26 02:57:15;;;;;;;7.95;3.72;;;;;;;;;;5078105;28;20210;-52
2021/04/26 02:59:42;;;;;;;14.10;3.92;;;;;;;;;;5077432;28;20218;-57
2021/04/26 03:02:09;;;;;;;8.60;3.85;;;;;;;;;;5076893;28;20234;-57
2021/04/26 03:04:53;;;;;;;6.90;3.80;;;;;;;;;;5077522;28;20260;-56
2021/04/26 03:07:21;;;;;;;4.65;3.33;;;;;;;;;;5077509;28;20198;-55
2021/04/26 03:09:49;;;;;;;17.90;4.90;;;;;;;;;;5077703;28;20226;-54
2021/04/26 03:12:17;;;;;;;7.90;4.03;;;;;;;;;;5082610;28;20217;-56
2021/04/26 03:14:45;;;;;;;7.93;3.55;;;;;;;;;;5097740;28;20198;-55
2021/04/26 03:17:12;;;;;;;5.43;3.30;;;;;;;;;;5097305;28;20247;-51
2021/04/26 03:19:52;;;;;;;19.60;4.82;;;;;;;;;;5097443;28;20218;-51
2021/04/26 03:22:19;;;;;;;6.65;3.55;;;;;;;;;;5077087;28;20360;-55
2021/04/26 03:24:46;;;;;;;9.70;4.22;;;;;;;;;;5075961;28;20223;-53
2021/04/26 03:27:47;;;;;;;7.95;3.72;;;;;;;;;;5090585;28;20233;-53
2021/04/26 03:30:16;;;;;;;13.32;5.10;;;;;;;;;;5076655;28;20209;-54
2021/04/26 03:32:44;;;;;;;11.45;3.55;;;;;;;;;;5077448;28;20213;-52
2021/04/26 03:35:20;;;;;;;9.38;4.38;;;;;;;;;;5088085;28;20273;-51
2021/04/26 03:37:49;;;;;;;5.80;4.00;;;;;;;;;;5097250;28;20231;-54
2021/04/26 03:40:20;;;;;;;4.43;2.90;;;;;;;;;;5096580;28;20198;-56
2021/04/26 03:42:48;;;;;;;12.23;5.50;;;;;;;;;;5097478;28;20233;-58
2021/04/26 03:45:15;;;;;;;4.97;3.10;;;;;;;;;;5097093;28;20292;-54
2021/04/26 03:47:42;;;;;;;7.68;3.50;;;;;;;;;;5079536;28;20218;-56
2021/04/26 03:50:17;;;;;;;8.05;3.10;;;;;;;;;;5077001;28;20191;-52
2021/04/26 03:52:44;;;;;;;6.38;3.40;;;;;;;;;;5078085;28;20210;-54
2021/04/26 03:55:12;;;;;;;9.43;3.95;;;;;;;;;;5077066;28;20206;-59
2021/04/26 03:57:50;;;;;;;12.15;4.63;;;;;;;;;;5076701;28;20195;-52
2021/04/26 04:00:17;;;;;;;6.65;4.10;;;;;;;;;;5096568;28;20309;-57
2021/04/26 04:02:47;;;;;;;9.40;3.60;;;;;;;;;;5096682;28;20241;-55
2021/04/26 04:05:15;;;;;;;5.97;3.65;;;;;;;;;;5093084;28;20217;-56
2021/04/26 04:07:43;;;;;;;10.70;4.68;;;;;;;;;;5076492;28;20194;-53
2021/04/26 04:10:33;;;;;;;8.60;4.15;;;;;;;;;;5087515;28;20225;-60
2021/04/26 04:13:00;;;;;;;10.73;5.07;;;;;;;;;;5085450;28;20217;-59
2021/04/26 04:15:27;;;;;;;10.43;4.07;;;;;;;;;;5082848;28;20237;-52
2021/04/26 04:17:54;;;;;;;9.52;4.07;;;;;;;;;;5095915;28;20198;-54
2021/04/26 04:20:21;;;;;;;8.40;4.75;;;;;;;;;;5095162;28;20244;-56
2021/04/26 04:22:49;;;;;;;9.25;4.57;;;;;;;;;;5096626;28;20494;-50
2021/04/26 04:25:22;;;;;;;10.35;4.40;;;;;;;;;;5096518;28;20201;-51
2021/04/26 04:27:49;;;;;;;11.85;4.15;;;;;;;;;;5096212;28;20267;-56
2021/04/26 04:30:16;;;;;;;9.40;5.30;;;;;;;;;;5096328;28;20188;-56
2021/04/26 04:32:43;;;;;;;12.88;4.90;;;;;;;;;;5079356;28;20219;-57
2021/04/26 04:35:10;;;;;;;5.70;3.90;;;;;;;;;;5076309;28;20198;-55
2021/04/26 04:37:37;;;;;;;9.00;4.30;;;;;;;;;;5076807;28;20198;-52
2021/04/26 04:40:06;;;;;;;7.15;4.60;;;;;;;;;;5076621;28;20201;-53
2021/04/26 04:42:33;;;;;;;8.75;4.57;;;;;;;;;;5077402;28;20215;-53
2021/04/26 04:45:08;;;;;;;11.55;5.18;;;;;;;;;;5096411;28;20205;-52
2021/04/26 04:47:35;;;;;;;7.85;3.92;;;;;;;;;;5097009;28;20190;-57
2021/04/26 04:50:03;;;;;;;9.02;4.55;;;;;;;;;;5096197;28;20209;-53
2021/04/26 04:52:30;;;;;;;10.40;4.68;;;;;;;;;;5096488;28;20198;-53
2021/04/26 04:54:57;;;;;;;6.90;3.95;;;;;;;;;;5096607;28;20232;-61
2021/04/26 04:57:25;;;;;;;9.82;5.93;;;;;;;;;;5096565;28;20189;-56
2021/04/26 04:59:52;;;;;;;6.55;3.78;;;;;;;;;;5096575;28;20201;-58
2021/04/26 05:02:19;;;;;;;5.22;3.22;;;;;;;;;;5096279;28;20320;-49
2021/04/26 05:04:46;;;;;;;6.57;3.83;;;;;;;;;;5090950;28;20189;-52
2021/04/26 05:07:13;;;;;;;12.57;3.60;;;;;;;;;;5096021;28;20194;-55
2021/04/26 05:10:04;;;;;;;7.47;4.05;;;;;;;;;;5091858;28;20229;-53
2021/04/26 05:12:32;;;;;;;14.95;4.90;;;;;;;;;;5088595;28;20194;-58
2021/04/26 05:14:58;;;;;;;9.48;4.50;;;;;;;;;;5088612;28;20220;-59
2021/04/26 05:17:31;;;;;;;5.63;3.10;;;;;;;;;;5095712;28;20217;-53
2021/04/26 05:19:58;;;;;;;9.15;3.45;;;;;;;;;;5074061;28;20241;-61
2021/04/26 05:22:25;;;;;;;7.68;4.53;;;;;;;;;;5067098;28;20243;-60
2021/04/26 05:24:54;;;;;;;9.27;3.65;;;;;;;;;;5059488;28;20179;-55
2021/04/26 05:27:21;;;;;;;8.52;3.25;;;;;;;;;;5073790;28;20274;-60
2021/04/26 05:29:48;;;;;;;7.95;3.40;;;;;;;;;;5075035;28;20259;-59
2021/04/26 05:35:19;;;;;;;8.65;3.20;;;;;;;;;;5073365;28;20232;-57
2021/04/26 05:37:47;;;;;;;12.60;7.95;;;;;;;;;;5069515;28;20199;-60
2021/04/26 05:40:16;;;;;;;9.13;3.50;;;;;;;;;;5063019;28;20191;-51
2021/04/26 05:42:44;;;;;;;7.07;4.05;;;;;;;;;;5073841;28;20211;-58
2021/04/26 05:45:18;;;;;;;7.75;2.80;;;;;;;;;;5061138;28;20183;-57
2021/04/26 05:47:44;;;;;;;8.35;4.13;;;;;;;;;;5054512;28;20207;-57
2021/04/26 05:50:11;;;;;;;14.82;3.00;;;;;;;;;;5053896;28;20512;-52
2021/04/26 05:52:54;;;;;;;6.55;3.55;;;;;;;;;;5067458;28;20207;-56
2021/04/26 05:55:21;;;;;;;8.70;4.95;;;;;;;;;;5075222;28;20245;-60
2021/04/26 05:57:50;;;;;;;8.15;4.13;;;;;;;;;;5087827;28;20209;-59
2021/04/26 06:00:20;;;;;;;5.30;3.15;;;;;;;;;;5079635;28;20190;-56
2021/04/26 06:02:48;;;;;;;9.35;3.60;;;;;;;;;;5086108;28;20221;-61
2021/04/26 06:05:17;;;;;;;7.03;3.30;;;;;;;;;;5081703;28;20198;-61
2021/04/26 06:07:45;;;;;;;6.90;2.67;;;;;;;;;;5077325;28;20195;-59
2021/04/26 06:10:12;;;;;;;7.10;3.08;;;;;;;;;;5083104;28;20229;-56
2021/04/26 06:13:11;;;;;;;4.95;2.67;;;;;;;;;;5091800;28;20305;-51
2021/04/26 06:15:38;;;;;;;9.33;3.20;;;;;;;;;;5092117;28;20217;-58
2021/04/26 06:18:09;;;;;;;12.23;3.30;;;;;;;;;;5096800;28;20467;-62
2021/04/26 06:20:36;;;;;;;8.98;4.38;;;;;;;;;;5097340;28;20213;-59
2021/04/26 06:23:04;;;;;;;7.35;2.70;;;;;;;;;;5097428;28;20233;-62
2021/04/26 06:25:37;;;;;;;12.35;3.45;;;;;;;;;;5081843;28;20198;-57
2021/04/26 06:28:04;;;;;;;5.18;3.00;;;;;;;;;;5087979;28;20220;-57
2021/04/26 06:30:31;;;;;;;6.95;2.85;;;;;;;;;;5096757;28;20202;-59
2021/04/26 06:33:00;;;;;;;6.47;3.20;;;;;;;;;;5096370;28;20210;-53
2021/04/26 06:35:27;;;;;;;5.43;2.90;;;;;;;;;;5096320;28;20499;-59
2021/04/26 06:38:17;;;;;;;10.60;4.50;;;;;;;;;;5088234;28;20441;-55
2021/04/26 06:40:46;;;;;;;6.17;2.50;;;;;;;;;;5081104;28;20507;-59
2021/04/26 06:43:13;;;;;;;7.00;2.10;;;;;;;;;;5079452;28;20583;-56
2021/04/26 06:45:43;;;;;;;4.22;1.90;;;;;;;;;;5079336;28;20449;-53
2021/04/26 06:48:14;;;;;;;5.00;3.07;;;;;;;;;;5089341;28;20191;-57
2021/04/26 06:50:42;;;;;;;5.37;2.17;;;;;;;;;;5076990;28;20487;-58
2021/04/26 06:53:10;;;;;;;8.53;2.30;;;;;;;;;;5075238;28;20468;-58
2021/04/26 06:55:36;;;;;;;7.13;2.20;;;;;;;;;;5075535;28;20429;-58
2021/04/26 06:58:14;;;;;;;6.40;2.33;;;;;;;;;;5074983;28;20429;-51
2021/04/26 07:00:41;;;;;;;13.23;2.10;;;;;;;;;;5076890;28;20491;-56
2021/04/26 07:03:10;;;;;;;3.80;1.83;;;;;;;;;;5079791;28;20490;-57
2021/04/26 07:05:39;;;;;;;5.90;1.77;;;;;;;;;;5082159;28;20473;-51
2021/04/26 07:08:06;;;;;;;3.53;1.70;;;;;;;;;;5079939;28;20451;-55
2021/04/26 07:10:33;;;;;;;4.20;1.90;;;;;;;;;;5066267;28;20531;-53
2021/04/26 07:13:19;;;;;;;4.03;1.97;;;;;;;;;;5081306;28;20432;-58
2021/04/26 07:15:46;;;;;;;4.77;1.97;;;;;;;;;;5095932;28;20600;-56
2021/04/26 07:18:13;;;;;;;4.63;1.90;;;;;;;;;;5082232;28;20536;-57
2021/04/26 07:20:40;;;;;;;5.40;2.10;;;;;;;;;;5081527;28;20456;-55
2021/04/26 07:23:07;;;;;;;4.50;1.67;;;;;;;;;;5074592;28;20671;-57
2021/04/26 07:25:41;;;;;;;4.53;1.70;;;;;;;;;;5073862;28;20456;-55
2021/04/26 07:28:08;;;;;;;5.10;1.40;;;;;;;;;;5074645;28;20461;-57
2021/04/26 07:30:35;;;;;;;3.40;1.60;;;;;;;;;;5079600;28;20480;-60
2021/04/26 07:33:04;;;;;;;5.43;1.93;;;;;;;;;;5089430;28;20457;-60
2021/04/26 07:35:31;;;;;;;3.83;1.90;;;;;;;;;;5095061;28;20444;-56
2021/04/26 07:37:59;;;;;;;3.23;1.90;;;;;;;;;;5091362;28;20503;-61
2021/04/26 07:40:25;;;;;;;3.40;1.60;;;;;;;;;;5081600;28;20482;-53
2021/04/26 07:42:53;;;;;;;4.70;1.47;;;;;;;;;;5084588;28;20527;-60
2021/04/26 07:45:24;;;;;;;4.23;1.40;;;;;;;;;;5088851;28;20456;-59
2021/04/26 07:47:54;;;;;;;3.33;1.40;;;;;;;;;;5094815;28;20487;-52
2021/04/26 07:50:22;;;;;;;3.30;1.30;;;;;;;;;;5081833;28;20452;-54
2021/04/26 07:52:49;;;;;;;5.23;1.43;;;;;;;;;;5083386;28;20441;-55
2021/04/26 07:55:18;;;;;;;4.30;1.97;;;;;;;;;;5074485;28;20445;-55
2021/04/26 07:57:50;;;;;;;4.13;1.60;;;;;;;;;;5074318;28;20453;-59
2021/04/26 08:00:17;;;;;;;3.33;1.70;;;;;;;;;;5086310;28;20480;-55
2021/04/26 08:02:44;;;;;;;5.53;1.80;;;;;;;;;;5091128;28;20481;-54
2021/04/26 08:05:14;;;;;;;4.63;1.30;;;;;;;;;;5088232;28;20535;-52
2021/04/26 08:07:41;;;;;;;2.33;0.90;;;;;;;;;;5092850;28;20487;-57
2021/04/26 08:10:13;;;;;;;4.33;1.40;;;;;;;;;;5094791;28;20516;-56
2021/04/26 08:12:49;;;;;;;5.30;1.90;;;;;;;;;;5081054;28;20464;-55
2021/04/26 08:15:16;;;;;;;3.63;1.43;;;;;;;;;;5073538;28;20459;-59
2021/04/26 08:17:43;;;;;;;2.87;1.33;;;;;;;;;;5074729;28;20483;-52
2021/04/26 08:20:42;;;;;;;4.57;1.33;;;;;;;;;;5073639;28;20468;-60
2021/04/26 08:23:09;;;;;;;4.57;1.37;;;;;;;;;;5073488;28;20485;-57
2021/04/26 08:25:37;;;;;;;3.10;1.53;;;;;;;;;;5077301;28;20452;-56
2021/04/26 08:28:05;;;;;;;3.03;1.27;;;;;;;;;;5072439;28;20537;-60
2021/04/26 08:30:32;;;;;;;4.43;1.37;;;;;;;;;;5073665;28;20449;-53
2021/04/26 08:33:06;;;;;;;3.07;1.37;;;;;;;;;;5086018;28;20461;-59
2021/04/26 08:35:36;;;;;;;3.27;1.00;;;;;;;;;;5090903;28;20455;-61
2021/04/26 08:38:04;;;;;;;3.60;1.87;;;;;;;;;;5090585;28;20460;-53
2021/04/26 08:40:31;;;;;;;2.53;1.40;;;;;;;;;;5076670;28;20465;-58
2021/04/26 08:43:02;;;;;;;3.80;1.17;;;;;;;;;;5091658;28;20496;-58
2021/04/26 08:45:31;;;;;;;5.70;1.87;;;;;;;;;;5092539;28;20596;-56
2021/04/26 08:47:58;;;;;;;3.03;1.10;;;;;;;;;;5093231;28;20674;-58
2021/04/26 08:50:25;;;;;;;2.20;0.90;;;;;;;;;;5083066;28;20460;-59
2021/04/26 08:53:03;;;;;;;3.97;1.47;;;;;;;;;;5091176;28;20464;-55
2021/04/26 08:55:29;;;;;;;3.80;1.40;;;;;;;;;;5092427;28;20487;-56
2021/04/26 08:57:56;;;;;;;2.40;1.43;;;;;;;;;;5080397;28;20472;-51
2021/04/26 09:00:23;;;;;;;3.83;1.37;;;;;;;;;;5087490;28;20463;-57
2021/04/26 09:02:55;;;;;;;6.97;1.80;;;;;;;;;;5091711;28;20460;-57
2021/04/26 09:05:24;;;;;;;6.27;1.97;;;;;;;;;;5089795;28;20472;-56
2021/04/26 09:07:57;;;;;;;5.13;1.60;;;;;;;;;;5089969;28;20459;-52
2021/04/26 09:10:38;;;;;;;2.80;1.30;;;;;;;;;;5091800;28;20475;-51
2021/04/26 09:13:25;;;;;;;3.57;1.37;;;;;;;;;;5092426;28;20447;-54
2021/04/26 09:15:59;;;;;;;2.43;1.10;;;;;;;;;;5087327;28;20471;-53
2021/04/26 09:18:44;;;;;;;8.33;1.60;;;;;;;;;;5086391;28;20467;-60
2021/04/26 09:21:17;;;;;;;3.27;1.50;;;;;;;;;;5073122;28;20505;-53
2021/04/26 09:23:44;;;;;;;3.47;1.27;;;;;;;;;;5085116;28;20472;-50
2021/04/26 09:26:27;;;;;;;3.77;1.60;;;;;;;;;;5081394;28;20433;-58
2021/04/26 09:29:16;;;;;;;4.80;1.33;;;;;;;;;;5091202;28;20488;-62
2021/04/26 09:31:59;;;;;;;4.97;1.90;;;;;;;;;;5090090;28;20452;-58
2021/04/26 09:34:32;;;;;;;4.93;1.70;;;;;;;;;;5092844;28;20456;-54
2021/04/26 09:37:05;;;;;;;7.40;1.50;;;;;;;;;;5075572;28;20445;-57
2021/04/26 09:39:34;;;;;;;4.33;1.40;;;;;;;;;;5073425;28;20452;-61
2021/04/26 09:42:03;;;;;;;4.33;1.70;;;;;;;;;;5072206;28;20464;-54
2021/04/26 09:44:29;;;;;;;5.03;1.50;;;;;;;;;;5073706;28;20510;-58
2021/04/26 09:46:56;;;;;;;5.23;1.43;;;;;;;;;;5080217;28;20517;-61
2021/04/26 09:49:35;;;;;;;4.30;1.83;;;;;;;;;;5092134;28;20790;-60
2021/04/26 09:52:14;;;;;;;4.50;1.87;;;;;;;;;;5091533;28;20453;-51
2021/04/26 09:54:42;;;;;;;16.00;1.70;;;;;;;;;;5081001;28;20500;-60
2021/04/26 09:57:09;;;;;;;3.67;1.30;;;;;;;;;;5073599;28;20489;-58
2021/04/26 09:59:36;;;;;;;3.33;1.30;;;;;;;;;;5075953;28;20463;-52
2021/04/26 10:02:14;;;;;;;5.23;2.00;;;;;;;;;;5090618;28;20414;-55
2021/04/26 10:04:43;;;;;;;2.80;1.50;;;;;;;;;;5083681;28;20486;-56
2021/04/26 10:07:10;;;;;;;3.63;1.63;;;;;;;;;;5093787;28;20463;-56
2021/04/26 10:09:40;;;;;;;4.67;1.40;;;;;;;;;;5091607;28;20468;-58
2021/04/26 10:12:10;;;;;;;4.67;1.97;;;;;;;;;;5092048;28;20465;-59
2021/04/26 10:14:40;;;;;;;5.03;1.40;;;;;;;;;;5079662;28;20526;-53
2021/04/26 10:17:10;;;;;;;2.97;1.43;;;;;;;;;;5079548;28;20448;-56
2021/04/26 10:19:38;;;;;;;3.63;1.50;;;;;;;;;;5091401;28;20527;-51
2021/04/26 10:22:06;;;;;;;5.30;1.70;;;;;;;;;;5087933;28;20578;-55
2021/04/26 10:24:34;;;;;;;4.00;2.00;;;;;;;;;;5092965;28;20455;-53
2021/04/26 10:33:26;;;;;;;3.93;1.57;;;;;;;;;;5083268;28;20452;-54
2021/04/26 10:35:56;;;;;;;5.47;1.90;;;;;;;;;;5061702;28;20463;-53
2021/04/26 10:38:46;;;;;;;3.00;1.63;;;;;;;;;;5091284;28;20567;-58
2021/04/26 10:41:36;;;;;;;3.90;1.57;;;;;;;;;;5081859;28;20444;-51
2021/04/26 10:44:08;;;;;;;3.57;1.03;;;;;;;;;;5081428;28;20492;-58
2021/04/26 10:46:34;;;;;;;4.30;1.50;;;;;;;;;;5084876;28;20464;-57
2021/04/26 10:49:19;;;;;;;4.27;1.63;;;;;;;;;;5096678;28;20436;-58
2021/04/26 10:51:48;;;;;;;5.83;1.90;;;;;;;;;;5079499;28;20509;-52
2021/04/26 10:54:38;;;;;;;4.03;1.70;;;;;;;;;;5093224;28;20466;-58
2021/04/26 11:00:29;;;;;;;3.00;1.60;;;;;;;;;;5084706;28;20562;-58
2021/04/26 11:02:59;;;;;;;4.63;1.40;;;;;;;;;;5070922;28;20471;-56
2021/04/26 11:05:27;;;;;;;4.77;1.67;;;;;;;;;;5084757;28;20515;-57
2021/04/26 11:08:01;;;;;;;2.50;1.20;;;;;;;;;;5061863;28;20476;-60
2021/04/26 11:10:31;;;;;;;4.20;1.30;;;;;;;;;;5082054;28;20503;-56
2021/04/26 11:13:07;;;;;;;5.83;1.90;;;;;;;;;;5095721;28;20458;-60
2021/04/26 11:15:38;;;;;;;2.47;1.23;;;;;;;;;;5077793;28;20440;-54
2021/04/26 11:21:06;;;;;;;3.00;1.30;;;;;;;;;;5093105;28;20468;-58
2021/04/26 11:23:45;;;;;;;4.43;1.90;;;;;;;;;;5091458;28;20460;-58
2021/04/26 11:26:30;;;;;;;2.43;1.30;;;;;;;;;;5077498;28;20479;-54
2021/04/26 11:29:05;;;;;;;8.73;2.53;;;;;;;;;;5095981;28;20532;-56
2021/04/26 11:31:52;;;;;;;2.43;1.30;;;;;;;;;;5095501;28;20522;-54
2021/04/26 11:34:22;;;;;;;3.70;1.90;;;;;;;;;;5087009;28;20904;-52
2021/04/26 11:37:07;;;;;;;2.97;1.50;;;;;;;;;;5094519;28;20468;-55
2021/04/26 11:39:40;;;;;;;3.97;1.97;;;;;;;;;;5074008;28;20485;-54
2021/04/26 11:42:08;;;;;;;4.60;1.60;;;;;;;;;;5075300;28;20445;-56
2021/04/26 11:44:35;;;;;;;4.20;1.57;;;;;;;;;;5094103;28;20479;-57
2021/04/26 11:47:09;;;;;;;4.50;2.17;;;;;;;;;;5094645;28;20455;-61
2021/04/26 11:49:38;;;;;;;6.23;2.23;;;;;;;;;;5095937;28;20881;-55
2021/04/26 11:52:15;;;;;;;7.43;1.60;;;;;;;;;;5083406;28;20468;-55
2021/04/26 11:54:43;;;;;;;8.70;1.70;;;;;;;;;;5090800;28;20506;-57
2021/04/26 11:57:15;;;;;;;6.10;2.03;;;;;;;;;;5086254;28;20449;-56
2021/04/26 11:59:58;;;;;;;7.23;1.97;;;;;;;;;;5061250;28;20471;-59
2021/04/26 12:02:28;;;;;;;3.70;1.33;;;;;;;;;;5090411;28;20547;-57
2021/04/26 12:05:00;;;;;;;5.80;1.47;;;;;;;;;;5080655;28;20483;-61
2021/04/26 12:07:43;;;;;;;4.70;1.80;;;;;;;;;;5078776;28;20573;-56
2021/04/26 12:10:12;;;;;;;4.97;1.90;;;;;;;;;;5083418;28;20488;-58
2021/04/26 12:12:40;;;;;;;3.20;1.60;;;;;;;;;;5082881;28;20512;-56
2021/04/26 12:15:09;;;;;;;6.30;2.17;;;;;;;;;;5083629;28;20451;-55
2021/04/26 12:17:37;;;;;;;3.07;1.60;;;;;;;;;;5094458;28;20482;-53
2021/04/26 12:20:20;;;;;;;4.23;1.93;;;;;;;;;;5066909;28;20433;-53
2021/04/26 12:22:50;;;;;;;4.50;1.13;;;;;;;;;;5089371;28;20524;-54
2021/04/26 12:25:18;;;;;;;5.00;1.63;;;;;;;;;;5086302;28;20500;-60
2021/04/26 12:28:04;;;;;;;3.03;1.50;;;;;;;;;;5086104;28;20547;-58
2021/04/26 12:30:38;;;;;;;4.10;1.40;;;;;;;;;;5086276;28;20484;-60
2021/04/26 12:33:22;;;;;;;7.20;1.80;;;;;;;;;;5073852;28;20574;-59
2021/04/26 12:35:52;;;;;;;3.00;1.40;;;;;;;;;;5074710;28;20484;-53
2021/04/26 12:38:27;;;;;;;9.67;2.00;;;;;;;;;;5062470;28;20470;-59
2021/04/26 12:41:02;;;;;;;3.10;1.47;;;;;;;;;;5062892;28;20452;-52
2021/04/26 12:43:41;;;;;;;4.50;1.30;;;;;;;;;;5093300;28;20613;-56
2021/04/26 12:46:10;;;;;;;2.97;1.30;;;;;;;;;;5084067;28;20444;-56
2021/04/26 12:48:38;;;;;;;2.40;1.00;;;;;;;;;;5087647;28;20448;-50
2021/04/26 12:54:21;;;;;;;3.07;1.60;;;;;;;;;;5086236;28;20483;-59
2021/04/26 12:57:06;;;;;;;6.07;2.10;;;;;;;;;;5079253;28;20424;-58
2021/04/26 12:59:48;;;;;;;3.10;1.40;;;;;;;;;;5073989;28;20448;-58
2021/04/26 13:02:54;;;;;;;3.10;1.37;;;;;;;;;;5085915;28;20448;-57
2021/04/26 13:05:22;;;;;;;5.70;1.70;;;;;;;;;;5092173;28;20459;-57
2021/04/26 13:10:38;;;;;;;3.80;1.77;;;;;;;;;;5093132;28;20480;-53
2021/04/26 13:13:08;;;;;;;8.67;2.07;;;;;;;;;;5074409;28;20520;-57
2021/04/26 13:16:09;;;;;;;3.10;1.60;;;;;;;;;;5088677;28;20472;-58
2021/04/26 13:18:44;;;;;;;4.07;1.57;;;;;;;;;;5087995;28;20488;-55
2021/04/26 13:21:15;;;;;;;2.87;1.33;;;;;;;;;;5092573;28;20459;-52
2021/04/26 13:23:45;;;;;;;3.50;1.43;;;;;;;;;;5094741;28;20504;-51
2021/04/26 13:26:41;;;;;;;3.43;1.83;;;;;;;;;;5089203;28;20643;-58
2021/04/26 13:35:27;;;;;;;4.53;1.63;;;;;;;;;;5072149;28;20460;-60
2021/04/26 13:37:54;;;;;;;3.60;1.60;;;;;;;;;;5083546;28;20437;-56
2021/04/26 13:40:23;;;;;;;3.53;1.60;;;;;;;;;;5094184;28;20464;-55
2021/04/26 13:42:49;;;;;;;2.90;1.53;;;;;;;;;;5093420;28;20468;-56
2021/04/26 13:45:17;;;;;;;5.30;1.60;;;;;;;;;;5089064;28;20503;-61
2021/04/26 13:47:44;;;;;;;3.90;2.10;;;;;;;;;;5094142;28;20494;-56
2021/04/26 13:50:11;;;;;;;5.40;2.00;;;;;;;;;;5094270;28;20493;-58
2021/04/26 13:52:39;;;;;;;4.60;1.77;;;;;;;;;;5091146;28;20429;-54
2021/04/26 13:55:06;;;;;;;3.83;2.23;;;;;;;;;;5095463;28;20827;-59
2021/04/26 13:57:33;;;;;;;4.73;1.93;;;;;;;;;;5093258;28;20452;-57
2021/04/26 14:00:03;;;;;;;4.70;2.30;;;;;;;;;;5079935;28;20487;-57
2021/04/26 14:02:30;;;;;;;3.53;2.37;;;;;;;;;;5088231;28;20499;-56
2021/04/26 14:05:05;;;;;;;6.40;2.80;;;;;;;;;;5081057;28;20463;-55
2021/04/26 14:07:32;;;;;;;3.50;2.40;;;;;;;;;;5086370;28;20489;-54
2021/04/26 14:10:00;;;;;;;4.00;2.20;;;;;;;;;;5090911;28;20444;-57
2021/04/26 14:12:27;;;;;;;3.57;2.00;;;;;;;;;;5081020;28;20539;-54
2021/04/26 14:14:59;;;;;;;7.60;2.53;;;;;;;;;;5097272;28;20436;-54
2021/04/26 14:17:27;;;;;;;4.43;1.97;;;;;;;;;;5087741;28;20467;-53
2021/04/26 14:19:59;;;;;;;3.97;2.03;;;;;;;;;;5074941;28;20447;-54
2021/04/26 14:28:11;;;;;;;7.87;2.50;;;;;;;;;;5074553;28;20440;-58
2021/04/26 14:30:38;;;;;;;5.03;2.00;;;;;;;;;;5058877;28;20438;-56
2021/04/26 14:33:32;;;;;;;6.87;2.43;;;;;;;;;;5077906;28;20463;-53
2021/04/26 14:35:59;;;;;;;4.80;2.33;;;;;;;;;;5075629;28;20473;-55
2021/04/26 14:38:26;;;;;;;9.90;2.83;;;;;;;;;;5076388;28;20457;-57
2021/04/26 14:40:55;;;;;;;4.97;2.70;;;;;;;;;;5076921;28;20556;-59
2021/04/26 14:43:26;;;;;;;6.97;2.97;;;;;;;;;;5081444;28;20495;-59
2021/04/26 14:45:54;;;;;;;3.03;1.87;;;;;;;;;;5087796;28;20524;-57
2021/04/26 14:48:22;;;;;;;4.80;2.17;;;;;;;;;;5067657;28;20452;-58
2021/04/26 14:50:49;;;;;;;4.00;2.10;;;;;;;;;;5091508;28;20460;-61
2021/04/26 14:53:16;;;;;;;5.63;2.50;;;;;;;;;;5070399;28;20699;-58
2021/04/26 14:55:52;;;;;;;9.23;3.93;;;;;;;;;;5077949;28;20515;-58
2021/04/26 14:58:20;;;;;;;5.60;2.70;;;;;;;;;;5094716;28;20495;-57
2021/04/26 15:00:59;;;;;;;6.13;3.20;;;;;;;;;;5093037;28;20471;-55
2021/04/26 15:03:54;;;;;;;5.47;3.53;;;;;;;;;;5097484;28;20501;-55
2021/04/26 15:06:23;;;;;;;5.50;3.20;;;;;;;;;;5082327;28;20516;-56
2021/04/26 15:09:04;;;;;;;7.17;2.70;;;;;;;;;;5096695;28;20440;-58
2021/04/26 15:11:34;;;;;;;7.97;2.80;;;;;;;;;;5097235;28;20503;-57
2021/04/26 15:14:01;;;;;;;6.47;3.30;;;;;;;;;;5062867;28;20441;-59
2021/04/26 15:16:30;;;;;;;8.30;3.07;;;;;;;;;;5082683;28;20453;-53
2021/04/26 15:18:58;;;;;;;6.03;2.63;;;;;;;;;;5077206;28;20445;-58
2021/04/26 15:21:26;;;;;;;6.33;2.80;;;;;;;;;;5094420;28;20464;-55
2021/04/26 15:23:53;;;;;;;4.40;2.93;;;;;;;;;;5097171;28;20849;-57
2021/04/26 15:26:22;;;;;;;4.93;2.83;;;;;;;;;;5095863;28;20452;-53
2021/04/26 15:28:49;;;;;;;6.50;2.87;;;;;;;;;;5088682;28;20467;-61
2021/04/26 15:31:16;;;;;;;7.63;3.63;;;;;;;;;;5089603;28;20481;-59
2021/04/26 15:33:44;;;;;;;6.50;2.93;;;;;;;;;;5074021;28;20652;-55
2021/04/26 15:36:12;;;;;;;5.67;2.87;;;;;;;;;;5094579;28;20460;-57
2021/04/26 15:38:38;;;;;;;5.10;3.30;;;;;;;;;;5094291;28;20487;-56
2021/04/26 15:41:17;;;;;;;7.37;3.83;;;;;;;;;;5087954;28;20462;-57
2021/04/26 15:43:46;;;;;;;4.63;2.97;;;;;;;;;;5092860;28;20471;-58
2021/04/26 15:46:14;;;;;;;4.10;2.47;;;;;;;;;;5080927;28;20455;-60